sensor_id;sensor_type;location;lat;lon;timestamp;temperature;humidity
15596;DHT22;7898;48.658;9.068;2023-01-15T00:01:33;9.30;99.90
15596;DHT22;7898;48.658;9.068;2023-01-15T00:04:02;9.30;99.90
15596;DHT22;7898;48.658;9.068;2023-01-15T00:06:33;9.30;99.90
15596;DHT22;7898;48.658;9.068;2023-01-15T00:09:01;9.20;99.90
15596;DHT22;7898;48.658;9.068;2023-01-15T00:11:27;9.20;99.90
15596;DHT22;7898;48.658;9.068;2023-01-15T00:13:55;9.20;99.90
15596;DHT22;7898;48.658;9.068;2023-01-15T00:16:23;9.30;99.90
15596;DHT22;7898;48.658;9.068;2023-01-15T00:18:52;9.30;99.90
15596;DHT22;7898;48.658;9.068;2023-01-15T00:21:19;9.40;99.90
15596;DHT22;7898;48.658;9.068;2023-01-15T00:23:48;9.30;99.90
15596;DHT22;7898;48.658;9.068;2023-01-15T00:26:33;9.40;99.90
15596;DHT22;7898;48.658;9.068;2023-01-15T00:29:18;9.40;99.90
15596;DHT22;7898;48.658;9.068;2023-01-15T00:31:52;9.40;99.90
15596;DHT22;7898;48.658;9.068;2023-01-15T00:34:20;9.40;99.90
15596;DHT22;7898;48.658;9.068;2023-01-15T00:36:47;9.40;99.90
15596;DHT22;7898;48.658;9.068;2023-01-15T00:39:15;9.40;99.90
15596;DHT22;7898;48.658;9.068;2023-01-15T00:41:42;9.40;99.90
15596;DHT22;7898;48.658;9.068;2023-01-15T00:44:09;9.40;99.90
15596;DHT22;7898;48.658;9.068;2023-01-15T00:46:36;9.40;99.90
15596;DHT22;7898;48.658;9.068;2023-01-15T00:49:03;9.40;99.90
15596;DHT22;7898;48.658;9.068;2023-01-15T00:51:30;9.50;99.90
15596;DHT22;7898;48.658;9.068;2023-01-15T00:53:57;9.40;99.90
15596;DHT22;7898;48.658;9.068;2023-01-15T00:56:26;9.40;99.90
15596;DHT22;7898;48.658;9.068;2023-01-15T00:58:53;9.50;99.90
15596;DHT22;7898;48.658;9.068;2023-01-15T01:01:20;9.50;99.90
15596;DHT22;7898;48.658;9.068;2023-01-15T01:03:47;9.50;99.90
15596;DHT22;7898;48.658;9.068;2023-01-15T01:06:17;9.50;99.90
15596;DHT22;7898;48.658;9.068;2023-01-15T01:08:45;9.60;99.90
15596;DHT22;7898;48.658;9.068;2023-01-15T01:11:14;9.60;99.90
15596;DHT22;7898;48.658;9.068;2023-01-15T01:13:43;9.60;99.90
15596;DHT22;7898;48.658;9.068;2023-01-15T01:16:25;9.60;99.90
15596;DHT22;7898;48.658;9.068;2023-01-15T01:18:55;9.60;99.90
15596;DHT22;7898;48.658;9.068;2023-01-15T01:21:22;9.60;99.90
15596;DHT22;7898;48.658;9.068;2023-01-15T01:23:49;9.50;99.90
15596;DHT22;7898;48.658;9.068;2023-01-15T01:26:16;9.50;99.90
15596;DHT22;7898;48.658;9.068;2023-01-15T01:28:47;9.50;99.90
15596;DHT22;7898;48.658;9.068;2023-01-15T01:31:14;9.60;99.90
15596;DHT22;7898;48.658;9.068;2023-01-15T01:33:41;9.50;99.90
15596;DHT22;7898;48.658;9.068;2023-01-15T01:36:08;9.50;99.90
15596;DHT22;7898;48.658;9.068;2023-01-15T01:38:35;9.60;99.90
15596;DHT22;7898;48.658;9.068;2023-01-15T01:41:02;9.50;99.90
15596;DHT22;7898;48.658;9.068;2023-01-15T01:43:29;9.50;99.90
15596;DHT22;7898;48.658;9.068;2023-01-15T01:45:57;9.50;99.90
15596;DHT22;7898;48.658;9.068;2023-01-15T01:48:27;9.60;99.90
15596;DHT22;7898;48.658;9.068;2023-01-15T01:50:56;9.60;99.90
15596;DHT22;7898;48.658;9.068;2023-01-15T01:53:27;9.60;99.90
15596;DHT22;7898;48.658;9.068;2023-01-15T01:55:55;9.60;99.90
15596;DHT22;7898;48.658;9.068;2023-01-15T01:58:24;9.60;99.90
15596;DHT22;7898;48.658;9.068;2023-01-15T02:00:52;9.60;99.90
15596;DHT22;7898;48.658;9.068;2023-01-15T02:03:24;9.60;99.90
15596;DHT22;7898;48.658;9.068;2023-01-15T02:05:55;9.60;99.90
15596;DHT22;7898;48.658;9.068;2023-01-15T02:08:22;9.70;99.90
15596;DHT22;7898;48.658;9.068;2023-01-15T02:10:51;9.60;99.90
15596;DHT22;7898;48.658;9.068;2023-01-15T02:13:24;9.60;99.90
15596;DHT22;7898;48.658;9.068;2023-01-15T02:16:00;9.70;99.90
15596;DHT22;7898;48.658;9.068;2023-01-15T02:18:35;9.70;99.90
15596;DHT22;7898;48.658;9.068;2023-01-15T02:21:10;9.60;99.90
15596;DHT22;7898;48.658;9.068;2023-01-15T02:23:57;9.70;99.90
15596;DHT22;7898;48.658;9.068;2023-01-15T02:29:26;9.70;99.90
15596;DHT22;7898;48.658;9.068;2023-01-15T02:31:54;9.70;99.90
15596;DHT22;7898;48.658;9.068;2023-01-15T02:34:24;9.70;99.90
15596;DHT22;7898;48.658;9.068;2023-01-15T02:36:57;9.70;99.90
15596;DHT22;7898;48.658;9.068;2023-01-15T02:39:27;9.70;99.90
15596;DHT22;7898;48.658;9.068;2023-01-15T02:41:58;9.70;99.90
15596;DHT22;7898;48.658;9.068;2023-01-15T02:44:29;9.80;99.90
15596;DHT22;7898;48.658;9.068;2023-01-15T02:46:57;9.80;99.90
15596;DHT22;7898;48.658;9.068;2023-01-15T02:49:25;9.80;99.90
15596;DHT22;7898;48.658;9.068;2023-01-15T02:51:59;9.80;99.90
15596;DHT22;7898;48.658;9.068;2023-01-15T02:54:30;9.90;99.90
15596;DHT22;7898;48.658;9.068;2023-01-15T02:57:01;9.90;99.90
15596;DHT22;7898;48.658;9.068;2023-01-15T02:59:34;9.90;99.90
15596;DHT22;7898;48.658;9.068;2023-01-15T03:02:04;10.00;99.90
15596;DHT22;7898;48.658;9.068;2023-01-15T03:04:35;10.00;99.90
15596;DHT22;7898;48.658;9.068;2023-01-15T03:07:11;10.10;99.90
15596;DHT22;7898;48.658;9.068;2023-01-15T03:09:40;10.00;99.90
15596;DHT22;7898;48.658;9.068;2023-01-15T03:12:11;10.00;99.90
15596;DHT22;7898;48.658;9.068;2023-01-15T03:14:50;10.10;99.90
15596;DHT22;7898;48.658;9.068;2023-01-15T03:17:19;10.10;99.90
15596;DHT22;7898;48.658;9.068;2023-01-15T03:19:49;10.10;99.90
15596;DHT22;7898;48.658;9.068;2023-01-15T03:22:24;10.10;99.90
15596;DHT22;7898;48.658;9.068;2023-01-15T03:24:54;10.20;99.90
15596;DHT22;7898;48.658;9.068;2023-01-15T03:27:23;10.20;99.90
15596;DHT22;7898;48.658;9.068;2023-01-15T03:29:53;10.30;99.90
15596;DHT22;7898;48.658;9.068;2023-01-15T03:32:21;10.30;99.90
15596;DHT22;7898;48.658;9.068;2023-01-15T03:34:50;10.30;99.90
15596;DHT22;7898;48.658;9.068;2023-01-15T03:37:18;10.40;99.90
15596;DHT22;7898;48.658;9.068;2023-01-15T03:39:46;10.50;99.90
15596;DHT22;7898;48.658;9.068;2023-01-15T03:42:22;10.50;99.90
15596;DHT22;7898;48.658;9.068;2023-01-15T03:44:58;10.50;99.90
15596;DHT22;7898;48.658;9.068;2023-01-15T03:47:32;10.50;99.90
15596;DHT22;7898;48.658;9.068;2023-01-15T03:50:06;10.50;99.90
15596;DHT22;7898;48.658;9.068;2023-01-15T03:52:42;10.50;99.90
15596;DHT22;7898;48.658;9.068;2023-01-15T03:55:13;10.50;99.90
15596;DHT22;7898;48.658;9.068;2023-01-15T03:57:45;10.50;99.90
15596;DHT22;7898;48.658;9.068;2023-01-15T04:00:20;10.50;99.90
15596;DHT22;7898;48.658;9.068;2023-01-15T04:02:48;11.10;99.90
15596;DHT22;7898;48.658;9.068;2023-01-15T04:05:16;10.50;99.90
15596;DHT22;7898;48.658;9.068;2023-01-15T04:07:45;10.50;99.90
15596;DHT22;7898;48.658;9.068;2023-01-15T04:10:12;10.50;99.90
15596;DHT22;7898;48.658;9.068;2023-01-15T04:12:39;10.50;99.90
15596;DHT22;7898;48.658;9.068;2023-01-15T04:15:07;10.40;99.90
15596;DHT22;7898;48.658;9.068;2023-01-15T04:17:35;10.40;99.90
15596;DHT22;7898;48.658;9.068;2023-01-15T04:20:03;10.40;99.90
15596;DHT22;7898;48.658;9.068;2023-01-15T04:22:30;10.40;99.90
15596;DHT22;7898;48.658;9.068;2023-01-15T04:24:57;10.40;99.90
15596;DHT22;7898;48.658;9.068;2023-01-15T04:27:24;10.40;99.90
15596;DHT22;7898;48.658;9.068;2023-01-15T04:29:52;10.40;99.90
15596;DHT22;7898;48.658;9.068;2023-01-15T04:32:19;10.40;99.90
15596;DHT22;7898;48.658;9.068;2023-01-15T04:34:47;10.30;99.90
15596;DHT22;7898;48.658;9.068;2023-01-15T04:37:15;10.40;99.90
15596;DHT22;7898;48.658;9.068;2023-01-15T04:39:42;10.40;99.90
15596;DHT22;7898;48.658;9.068;2023-01-15T04:42:11;10.30;99.90
15596;DHT22;7898;48.658;9.068;2023-01-15T04:45:05;10.30;99.90
15596;DHT22;7898;48.658;9.068;2023-01-15T04:47:32;10.30;99.90
15596;DHT22;7898;48.658;9.068;2023-01-15T04:50:00;10.30;99.90
15596;DHT22;7898;48.658;9.068;2023-01-15T04:52:27;10.30;99.90
15596;DHT22;7898;48.658;9.068;2023-01-15T04:54:54;10.30;99.90
15596;DHT22;7898;48.658;9.068;2023-01-15T04:57:21;10.30;99.90
15596;DHT22;7898;48.658;9.068;2023-01-15T04:59:48;10.20;99.90
15596;DHT22;7898;48.658;9.068;2023-01-15T05:02:15;10.30;99.90
15596;DHT22;7898;48.658;9.068;2023-01-15T05:04:42;10.30;99.90
15596;DHT22;7898;48.658;9.068;2023-01-15T05:07:10;10.20;99.90
15596;DHT22;7898;48.658;9.068;2023-01-15T05:09:37;10.20;99.90
15596;DHT22;7898;48.658;9.068;2023-01-15T05:12:04;10.20;99.90
15596;DHT22;7898;48.658;9.068;2023-01-15T05:14:31;10.20;99.90
15596;DHT22;7898;48.658;9.068;2023-01-15T05:16:58;10.30;99.90
15596;DHT22;7898;48.658;9.068;2023-01-15T05:19:25;10.20;99.90
15596;DHT22;7898;48.658;9.068;2023-01-15T05:21:52;10.20;99.90
15596;DHT22;7898;48.658;9.068;2023-01-15T05:24:20;10.20;99.90
15596;DHT22;7898;48.658;9.068;2023-01-15T05:26:47;10.20;99.90
15596;DHT22;7898;48.658;9.068;2023-01-15T05:29:14;10.40;99.90
15596;DHT22;7898;48.658;9.068;2023-01-15T05:31:41;10.40;99.90
15596;DHT22;7898;48.658;9.068;2023-01-15T05:34:10;10.50;99.90
15596;DHT22;7898;48.658;9.068;2023-01-15T05:36:37;10.50;99.90
15596;DHT22;7898;48.658;9.068;2023-01-15T05:39:04;10.60;99.90
15596;DHT22;7898;48.658;9.068;2023-01-15T05:41:33;10.60;99.90
15596;DHT22;7898;48.658;9.068;2023-01-15T05:44:24;10.60;99.90
15596;DHT22;7898;48.658;9.068;2023-01-15T05:46:53;10.70;99.90
15596;DHT22;7898;48.658;9.068;2023-01-15T05:49:22;10.40;99.90
15596;DHT22;7898;48.658;9.068;2023-01-15T05:51:50;10.00;99.90
15596;DHT22;7898;48.658;9.068;2023-01-15T05:54:19;9.50;99.90
15596;DHT22;7898;48.658;9.068;2023-01-15T05:56:47;9.00;99.90
15596;DHT22;7898;48.658;9.068;2023-01-15T05:59:15;8.70;99.90
15596;DHT22;7898;48.658;9.068;2023-01-15T06:01:43;8.40;99.90
15596;DHT22;7898;48.658;9.068;2023-01-15T06:04:10;8.20;99.90
15596;DHT22;7898;48.658;9.068;2023-01-15T06:06:39;8.00;99.90
15596;DHT22;7898;48.658;9.068;2023-01-15T06:09:07;7.90;99.90
15596;DHT22;7898;48.658;9.068;2023-01-15T06:11:33;7.70;99.90
15596;DHT22;7898;48.658;9.068;2023-01-15T06:14:02;7.70;99.90
15596;DHT22;7898;48.658;9.068;2023-01-15T06:16:29;7.50;99.90
15596;DHT22;7898;48.658;9.068;2023-01-15T06:18:59;7.50;99.90
15596;DHT22;7898;48.658;9.068;2023-01-15T06:21:26;7.50;99.90
15596;DHT22;7898;48.658;9.068;2023-01-15T06:23:53;7.50;99.90
15596;DHT22;7898;48.658;9.068;2023-01-15T06:26:20;7.40;99.90
15596;DHT22;7898;48.658;9.068;2023-01-15T06:28:47;7.40;99.90
15596;DHT22;7898;48.658;9.068;2023-01-15T06:31:17;7.30;99.90
15596;DHT22;7898;48.658;9.068;2023-01-15T06:33:45;7.30;99.90
15596;DHT22;7898;48.658;9.068;2023-01-15T06:36:13;7.30;99.90
15596;DHT22;7898;48.658;9.068;2023-01-15T06:38:40;7.30;99.90
15596;DHT22;7898;48.658;9.068;2023-01-15T06:41:11;7.20;99.90
15596;DHT22;7898;48.658;9.068;2023-01-15T06:43:52;7.10;99.90
15596;DHT22;7898;48.658;9.068;2023-01-15T06:46:39;7.10;99.90
15596;DHT22;7898;48.658;9.068;2023-01-15T06:49:25;7.00;99.90
15596;DHT22;7898;48.658;9.068;2023-01-15T06:51:52;6.90;99.90
15596;DHT22;7898;48.658;9.068;2023-01-15T06:54:19;6.80;99.90
15596;DHT22;7898;48.658;9.068;2023-01-15T06:56:46;6.80;99.90
15596;DHT22;7898;48.658;9.068;2023-01-15T06:59:12;6.70;99.90
15596;DHT22;7898;48.658;9.068;2023-01-15T07:01:41;6.60;99.90
15596;DHT22;7898;48.658;9.068;2023-01-15T07:04:07;6.60;99.90
15596;DHT22;7898;48.658;9.068;2023-01-15T07:06:34;6.50;99.90
15596;DHT22;7898;48.658;9.068;2023-01-15T07:09:01;6.50;99.90
15596;DHT22;7898;48.658;9.068;2023-01-15T07:11:28;6.50;99.90
15596;DHT22;7898;48.658;9.068;2023-01-15T07:13:55;6.40;99.90
15596;DHT22;7898;48.658;9.068;2023-01-15T07:16:31;6.40;99.90
15596;DHT22;7898;48.658;9.068;2023-01-15T07:18:59;6.30;99.90
15596;DHT22;7898;48.658;9.068;2023-01-15T07:21:26;6.30;99.90
15596;DHT22;7898;48.658;9.068;2023-01-15T07:23:53;6.30;99.90
15596;DHT22;7898;48.658;9.068;2023-01-15T07:26:20;6.20;99.90
15596;DHT22;7898;48.658;9.068;2023-01-15T07:28:47;6.20;99.90
15596;DHT22;7898;48.658;9.068;2023-01-15T07:31:14;6.20;99.90
15596;DHT22;7898;48.658;9.068;2023-01-15T07:33:41;6.20;99.90
15596;DHT22;7898;48.658;9.068;2023-01-15T07:36:09;6.20;99.90
15596;DHT22;7898;48.658;9.068;2023-01-15T07:38:36;6.10;99.90
15596;DHT22;7898;48.658;9.068;2023-01-15T07:41:03;6.10;99.90
15596;DHT22;7898;48.658;9.068;2023-01-15T07:43:48;6.10;99.90
15596;DHT22;7898;48.658;9.068;2023-01-15T07:46:32;6.00;99.90
15596;DHT22;7898;48.658;9.068;2023-01-15T07:49:16;6.00;99.90
15596;DHT22;7898;48.658;9.068;2023-01-15T07:52:02;6.00;99.90
15596;DHT22;7898;48.658;9.068;2023-01-15T07:54:28;6.00;99.90
15596;DHT22;7898;48.658;9.068;2023-01-15T07:56:55;6.00;99.90
15596;DHT22;7898;48.658;9.068;2023-01-15T07:59:22;6.00;99.90
15596;DHT22;7898;48.658;9.068;2023-01-15T08:01:50;5.90;99.90
15596;DHT22;7898;48.658;9.068;2023-01-15T08:04:17;5.90;99.90
15596;DHT22;7898;48.658;9.068;2023-01-15T08:06:44;5.90;99.90
15596;DHT22;7898;48.658;9.068;2023-01-15T08:09:12;5.90;99.90
15596;DHT22;7898;48.658;9.068;2023-01-15T08:11:39;5.90;99.90
15596;DHT22;7898;48.658;9.068;2023-01-15T08:14:23;5.80;99.90
15596;DHT22;7898;48.658;9.068;2023-01-15T08:17:07;5.80;99.90
15596;DHT22;7898;48.658;9.068;2023-01-15T08:19:34;5.90;99.90
15596;DHT22;7898;48.658;9.068;2023-01-15T08:22:01;5.90;99.90
15596;DHT22;7898;48.658;9.068;2023-01-15T08:24:29;5.90;99.90
15596;DHT22;7898;48.658;9.068;2023-01-15T08:26:56;5.90;99.90
15596;DHT22;7898;48.658;9.068;2023-01-15T08:29:23;5.90;99.90
15596;DHT22;7898;48.658;9.068;2023-01-15T08:31:49;6.00;99.90
15596;DHT22;7898;48.658;9.068;2023-01-15T08:34:16;6.10;99.90
15596;DHT22;7898;48.658;9.068;2023-01-15T08:36:44;6.00;99.90
15596;DHT22;7898;48.658;9.068;2023-01-15T08:39:11;6.00;99.90
15596;DHT22;7898;48.658;9.068;2023-01-15T08:41:39;6.00;99.90
15596;DHT22;7898;48.658;9.068;2023-01-15T08:44:06;6.00;99.90
15596;DHT22;7898;48.658;9.068;2023-01-15T08:46:32;6.10;99.90
15596;DHT22;7898;48.658;9.068;2023-01-15T08:48:59;6.00;99.90
15596;DHT22;7898;48.658;9.068;2023-01-15T08:51:26;6.00;99.90
15596;DHT22;7898;48.658;9.068;2023-01-15T08:53:53;6.00;99.90
15596;DHT22;7898;48.658;9.068;2023-01-15T08:56:20;6.10;99.90
15596;DHT22;7898;48.658;9.068;2023-01-15T08:58:48;6.00;99.90
15596;DHT22;7898;48.658;9.068;2023-01-15T09:01:15;5.90;99.90
15596;DHT22;7898;48.658;9.068;2023-01-15T09:03:42;5.90;99.90
15596;DHT22;7898;48.658;9.068;2023-01-15T09:06:09;5.80;99.90
15596;DHT22;7898;48.658;9.068;2023-01-15T09:08:38;5.70;99.90
15596;DHT22;7898;48.658;9.068;2023-01-15T09:11:06;5.70;99.90
15596;DHT22;7898;48.658;9.068;2023-01-15T09:13:35;5.70;99.90
15596;DHT22;7898;48.658;9.068;2023-01-15T09:16:05;5.70;99.90
15596;DHT22;7898;48.658;9.068;2023-01-15T09:18:32;5.60;99.90
15596;DHT22;7898;48.658;9.068;2023-01-15T09:21:00;5.70;99.90
15596;DHT22;7898;48.658;9.068;2023-01-15T09:23:27;5.70;99.90
15596;DHT22;7898;48.658;9.068;2023-01-15T09:25:54;5.70;99.90
15596;DHT22;7898;48.658;9.068;2023-01-15T09:28:22;5.60;99.90
15596;DHT22;7898;48.658;9.068;2023-01-15T09:30:49;5.70;99.90
15596;DHT22;7898;48.658;9.068;2023-01-15T09:33:18;5.70;99.90
15596;DHT22;7898;48.658;9.068;2023-01-15T09:35:45;5.70;99.90
15596;DHT22;7898;48.658;9.068;2023-01-15T09:38:12;5.70;99.90
15596;DHT22;7898;48.658;9.068;2023-01-15T09:40:48;5.70;99.90
15596;DHT22;7898;48.658;9.068;2023-01-15T09:43:28;6.30;99.90
15596;DHT22;7898;48.658;9.068;2023-01-15T09:45:59;5.70;99.90
15596;DHT22;7898;48.658;9.068;2023-01-15T09:48:39;5.70;99.90
15596;DHT22;7898;48.658;9.068;2023-01-15T09:51:15;5.80;99.90
15596;DHT22;7898;48.658;9.068;2023-01-15T09:54:04;5.80;99.90
15596;DHT22;7898;48.658;9.068;2023-01-15T09:56:37;5.80;99.90
15596;DHT22;7898;48.658;9.068;2023-01-15T09:59:11;5.80;99.90
15596;DHT22;7898;48.658;9.068;2023-01-15T10:01:39;5.60;99.90
15596;DHT22;7898;48.658;9.068;2023-01-15T10:04:14;5.50;99.90
15596;DHT22;7898;48.658;9.068;2023-01-15T10:06:46;5.50;99.90
15596;DHT22;7898;48.658;9.068;2023-01-15T10:09:19;5.50;99.90
15596;DHT22;7898;48.658;9.068;2023-01-15T10:11:51;5.50;99.90
15596;DHT22;7898;48.658;9.068;2023-01-15T10:14:44;5.40;99.90
15596;DHT22;7898;48.658;9.068;2023-01-15T10:17:20;5.40;99.90
15596;DHT22;7898;48.658;9.068;2023-01-15T10:19:50;5.40;99.90
15596;DHT22;7898;48.658;9.068;2023-01-15T10:22:32;5.50;99.90
15596;DHT22;7898;48.658;9.068;2023-01-15T10:25:04;5.50;99.90
15596;DHT22;7898;48.658;9.068;2023-01-15T10:27:34;5.60;99.90
15596;DHT22;7898;48.658;9.068;2023-01-15T10:30:05;5.60;99.90
15596;DHT22;7898;48.658;9.068;2023-01-15T10:32:42;5.50;99.90
15596;DHT22;7898;48.658;9.068;2023-01-15T10:35:33;5.50;99.90
15596;DHT22;7898;48.658;9.068;2023-01-15T10:38:11;5.30;99.90
15596;DHT22;7898;48.658;9.068;2023-01-15T10:40:50;5.30;99.90
15596;DHT22;7898;48.658;9.068;2023-01-15T10:43:25;5.40;99.90
15596;DHT22;7898;48.658;9.068;2023-01-15T10:45:59;5.40;99.90
15596;DHT22;7898;48.658;9.068;2023-01-15T10:48:31;5.30;99.90
15596;DHT22;7898;48.658;9.068;2023-01-15T10:51:05;5.30;99.90
15596;DHT22;7898;48.658;9.068;2023-01-15T10:53:42;5.30;99.90
15596;DHT22;7898;48.658;9.068;2023-01-15T10:56:15;5.20;99.90
15596;DHT22;7898;48.658;9.068;2023-01-15T10:58:49;5.20;99.90
15596;DHT22;7898;48.658;9.068;2023-01-15T11:01:19;5.10;99.90
15596;DHT22;7898;48.658;9.068;2023-01-15T11:03:48;5.10;99.90
15596;DHT22;7898;48.658;9.068;2023-01-15T11:06:18;5.00;99.90
15596;DHT22;7898;48.658;9.068;2023-01-15T11:08:49;5.30;99.90
15596;DHT22;7898;48.658;9.068;2023-01-15T11:11:20;5.00;99.90
15596;DHT22;7898;48.658;9.068;2023-01-15T11:14:08;5.00;99.90
15596;DHT22;7898;48.658;9.068;2023-01-15T11:16:52;5.10;99.90
15596;DHT22;7898;48.658;9.068;2023-01-15T11:19:38;5.00;99.90
15596;DHT22;7898;48.658;9.068;2023-01-15T11:22:12;4.90;99.90
15596;DHT22;7898;48.658;9.068;2023-01-15T11:24:48;4.80;99.90
15596;DHT22;7898;48.658;9.068;2023-01-15T11:27:17;4.70;99.90
15596;DHT22;7898;48.658;9.068;2023-01-15T11:29:49;4.50;99.90
15596;DHT22;7898;48.658;9.068;2023-01-15T11:32:19;4.40;99.90
15596;DHT22;7898;48.658;9.068;2023-01-15T11:34:54;4.20;99.90
15596;DHT22;7898;48.658;9.068;2023-01-15T11:37:23;4.10;99.90
15596;DHT22;7898;48.658;9.068;2023-01-15T11:39:55;4.00;99.90
15596;DHT22;7898;48.658;9.068;2023-01-15T11:42:22;4.00;99.90
15596;DHT22;7898;48.658;9.068;2023-01-15T11:45:15;4.00;99.90
15596;DHT22;7898;48.658;9.068;2023-01-15T11:48:00;4.00;99.90
15596;DHT22;7898;48.658;9.068;2023-01-15T11:50:54;4.00;99.90
15596;DHT22;7898;48.658;9.068;2023-01-15T11:53:26;4.00;99.90
15596;DHT22;7898;48.658;9.068;2023-01-15T11:55:57;4.00;99.90
15596;DHT22;7898;48.658;9.068;2023-01-15T11:58:28;4.00;99.90
15596;DHT22;7898;48.658;9.068;2023-01-15T12:00:58;4.00;99.90
15596;DHT22;7898;48.658;9.068;2023-01-15T12:03:28;4.00;99.90
15596;DHT22;7898;48.658;9.068;2023-01-15T12:05:59;4.00;99.90
15596;DHT22;7898;48.658;9.068;2023-01-15T12:08:37;3.90;99.90
15596;DHT22;7898;48.658;9.068;2023-01-15T12:11:15;3.90;99.90
15596;DHT22;7898;48.658;9.068;2023-01-15T12:13:52;4.00;99.90
15596;DHT22;7898;48.658;9.068;2023-01-15T12:16:31;4.00;99.90
15596;DHT22;7898;48.658;9.068;2023-01-15T12:19:02;3.90;99.90
15596;DHT22;7898;48.658;9.068;2023-01-15T12:21:44;3.90;99.90
15596;DHT22;7898;48.658;9.068;2023-01-15T12:24:49;3.90;99.90
15596;DHT22;7898;48.658;9.068;2023-01-15T12:27:42;3.90;99.90
15596;DHT22;7898;48.658;9.068;2023-01-15T12:30:23;3.80;99.90
15596;DHT22;7898;48.658;9.068;2023-01-15T12:32:57;3.90;99.90
15596;DHT22;7898;48.658;9.068;2023-01-15T12:35:28;3.90;99.90
15596;DHT22;7898;48.658;9.068;2023-01-15T12:37:57;3.90;99.90
15596;DHT22;7898;48.658;9.068;2023-01-15T12:40:32;3.90;99.90
15596;DHT22;7898;48.658;9.068;2023-01-15T12:43:02;3.90;99.90
15596;DHT22;7898;48.658;9.068;2023-01-15T12:45:50;3.80;99.90
15596;DHT22;7898;48.658;9.068;2023-01-15T12:48:21;3.80;99.90
15596;DHT22;7898;48.658;9.068;2023-01-15T12:50:54;3.80;99.90
15596;DHT22;7898;48.658;9.068;2023-01-15T12:53:26;3.70;99.90
15596;DHT22;7898;48.658;9.068;2023-01-15T12:56:00;3.80;99.90
15596;DHT22;7898;48.658;9.068;2023-01-15T12:58:37;3.70;99.90
15596;DHT22;7898;48.658;9.068;2023-01-15T13:01:12;3.70;99.90
15596;DHT22;7898;48.658;9.068;2023-01-15T13:03:52;3.70;99.90
15596;DHT22;7898;48.658;9.068;2023-01-15T13:06:23;3.80;99.90
15596;DHT22;7898;48.658;9.068;2023-01-15T13:08:57;3.80;99.90
15596;DHT22;7898;48.658;9.068;2023-01-15T13:11:27;3.80;99.90
15596;DHT22;7898;48.658;9.068;2023-01-15T13:13:54;4.40;99.90
15596;DHT22;7898;48.658;9.068;2023-01-15T13:16:32;3.90;99.90
15596;DHT22;7898;48.658;9.068;2023-01-15T13:19:22;4.00;99.90
15596;DHT22;7898;48.658;9.068;2023-01-15T13:21:55;4.00;99.90
15596;DHT22;7898;48.658;9.068;2023-01-15T13:24:46;3.90;99.90
15596;DHT22;7898;48.658;9.068;2023-01-15T13:27:31;4.00;99.90
15596;DHT22;7898;48.658;9.068;2023-01-15T13:30:18;4.10;99.90
15596;DHT22;7898;48.658;9.068;2023-01-15T13:32:49;4.10;99.90
15596;DHT22;7898;48.658;9.068;2023-01-15T13:35:26;4.10;99.90
15596;DHT22;7898;48.658;9.068;2023-01-15T13:37:56;4.20;99.90
15596;DHT22;7898;48.658;9.068;2023-01-15T13:40:26;4.10;99.90
15596;DHT22;7898;48.658;9.068;2023-01-15T13:42:56;4.20;99.90
15596;DHT22;7898;48.658;9.068;2023-01-15T13:45:34;4.20;99.90
15596;DHT22;7898;48.658;9.068;2023-01-15T13:48:04;4.20;99.90
15596;DHT22;7898;48.658;9.068;2023-01-15T13:50:34;4.20;99.90
15596;DHT22;7898;48.658;9.068;2023-01-15T13:53:05;4.20;99.90
15596;DHT22;7898;48.658;9.068;2023-01-15T13:55:35;4.30;99.90
15596;DHT22;7898;48.658;9.068;2023-01-15T13:58:20;4.30;99.90
15596;DHT22;7898;48.658;9.068;2023-01-15T14:00:48;4.30;99.90
15596;DHT22;7898;48.658;9.068;2023-01-15T14:03:27;4.30;99.90
15596;DHT22;7898;48.658;9.068;2023-01-15T14:05:55;4.30;99.90
15596;DHT22;7898;48.658;9.068;2023-01-15T14:08:26;4.40;99.90
15596;DHT22;7898;48.658;9.068;2023-01-15T14:10:54;4.40;99.90
15596;DHT22;7898;48.658;9.068;2023-01-15T14:13:52;4.40;99.90
15596;DHT22;7898;48.658;9.068;2023-01-15T14:16:33;4.50;99.90
15596;DHT22;7898;48.658;9.068;2023-01-15T14:19:25;4.50;99.90
15596;DHT22;7898;48.658;9.068;2023-01-15T14:22:06;4.50;99.90
15596;DHT22;7898;48.658;9.068;2023-01-15T14:27:41;4.60;99.90
15596;DHT22;7898;48.658;9.068;2023-01-15T14:30:27;4.60;99.90
15596;DHT22;7898;48.658;9.068;2023-01-15T14:33:07;4.60;99.90
15596;DHT22;7898;48.658;9.068;2023-01-15T14:35:39;4.60;99.90
15596;DHT22;7898;48.658;9.068;2023-01-15T14:38:12;4.60;99.90
15596;DHT22;7898;48.658;9.068;2023-01-15T14:40:51;4.60;99.90
15596;DHT22;7898;48.658;9.068;2023-01-15T14:43:20;4.60;99.90
15596;DHT22;7898;48.658;9.068;2023-01-15T14:45:48;4.70;99.90
15596;DHT22;7898;48.658;9.068;2023-01-15T14:48:18;4.60;99.90
15596;DHT22;7898;48.658;9.068;2023-01-15T14:50:46;4.60;99.90
15596;DHT22;7898;48.658;9.068;2023-01-15T14:53:24;4.60;99.90
15596;DHT22;7898;48.658;9.068;2023-01-15T14:55:56;4.60;99.90
15596;DHT22;7898;48.658;9.068;2023-01-15T14:58:37;3.90;99.90
15596;DHT22;7898;48.658;9.068;2023-01-15T15:01:20;4.50;99.90
15596;DHT22;7898;48.658;9.068;2023-01-15T15:03:52;4.40;99.90
15596;DHT22;7898;48.658;9.068;2023-01-15T15:06:20;4.40;99.90
15596;DHT22;7898;48.658;9.068;2023-01-15T15:08:48;4.40;99.90
15596;DHT22;7898;48.658;9.068;2023-01-15T15:11:22;4.30;99.90
15596;DHT22;7898;48.658;9.068;2023-01-15T15:14:08;4.30;99.90
15596;DHT22;7898;48.658;9.068;2023-01-15T15:16:43;4.30;99.90
15596;DHT22;7898;48.658;9.068;2023-01-15T15:19:17;4.20;99.90
15596;DHT22;7898;48.658;9.068;2023-01-15T15:21:47;4.30;99.90
15596;DHT22;7898;48.658;9.068;2023-01-15T15:24:20;4.20;99.90
15596;DHT22;7898;48.658;9.068;2023-01-15T15:26:48;4.10;99.90
15596;DHT22;7898;48.658;9.068;2023-01-15T15:29:16;4.10;99.90
15596;DHT22;7898;48.658;9.068;2023-01-15T15:31:47;4.10;99.90
15596;DHT22;7898;48.658;9.068;2023-01-15T15:34:24;4.10;99.90
15596;DHT22;7898;48.658;9.068;2023-01-15T15:36:54;4.10;99.90
15596;DHT22;7898;48.658;9.068;2023-01-15T15:39:27;4.00;99.90
15596;DHT22;7898;48.658;9.068;2023-01-15T15:41:56;4.00;99.90
15596;DHT22;7898;48.658;9.068;2023-01-15T15:44:45;4.00;99.90
15596;DHT22;7898;48.658;9.068;2023-01-15T15:47:38;3.90;99.90
15596;DHT22;7898;48.658;9.068;2023-01-15T15:50:20;3.90;99.90
15596;DHT22;7898;48.658;9.068;2023-01-15T15:52:51;3.80;99.90
15596;DHT22;7898;48.658;9.068;2023-01-15T15:55:19;3.80;99.90
15596;DHT22;7898;48.658;9.068;2023-01-15T15:57:49;3.80;99.90
15596;DHT22;7898;48.658;9.068;2023-01-15T16:00:19;3.70;99.90
15596;DHT22;7898;48.658;9.068;2023-01-15T16:02:48;3.70;99.90
15596;DHT22;7898;48.658;9.068;2023-01-15T16:05:23;3.70;99.90
15596;DHT22;7898;48.658;9.068;2023-01-15T16:07:51;3.60;99.90
15596;DHT22;7898;48.658;9.068;2023-01-15T16:10:24;3.60;99.90
15596;DHT22;7898;48.658;9.068;2023-01-15T16:12:53;3.60;99.90
15596;DHT22;7898;48.658;9.068;2023-01-15T16:15:24;3.60;99.90
15596;DHT22;7898;48.658;9.068;2023-01-15T16:17:54;3.60;99.90
15596;DHT22;7898;48.658;9.068;2023-01-15T16:20:22;3.60;99.90
15596;DHT22;7898;48.658;9.068;2023-01-15T16:22:54;3.50;99.90
15596;DHT22;7898;48.658;9.068;2023-01-15T16:25:24;3.50;99.90
15596;DHT22;7898;48.658;9.068;2023-01-15T16:27:51;3.50;99.90
15596;DHT22;7898;48.658;9.068;2023-01-15T16:30:19;3.50;99.90
15596;DHT22;7898;48.658;9.068;2023-01-15T16:32:47;3.50;99.90
15596;DHT22;7898;48.658;9.068;2023-01-15T16:35:18;3.50;99.90